createdAt,value
2023-03-20T00:02:22.555Z,100600.69
2023-03-20T00:04:50.098Z,100569.63
2023-03-20T00:07:17.628Z,100587.38
2023-03-20T00:09:44.874Z,100547.72
2023-03-20T00:12:17.587Z,100571.28
2023-03-20T00:14:45.630Z,100505.56
2023-03-20T00:17:18.464Z,100608.75
2023-03-20T00:19:46.327Z,100611.78
2023-03-20T00:22:13.630Z,100532.47
2023-03-20T00:24:41.492Z,100468.69
2023-03-20T00:27:14.218Z,100572.41
2023-03-20T00:29:42.763Z,100538.00
2023-03-20T00:32:14.100Z,100460.91
2023-03-20T00:34:41.891Z,100524.13
2023-03-20T00:37:12.087Z,100525.78
2023-03-20T00:39:39.576Z,100571.25
2023-03-20T00:42:12.974Z,100594.56
2023-03-20T00:44:54.606Z,100577.34
2023-03-20T00:47:25.797Z,100573.22
2023-03-20T00:49:56.220Z,100587.34
2023-03-20T00:52:23.954Z,100572.91
2023-03-20T00:54:52.116Z,100581.53
2023-03-20T00:57:28.015Z,100593.47
2023-03-20T00:59:58.407Z,100564.03
2023-03-20T01:02:29.312Z,100572.63
2023-03-20T01:04:57.545Z,100560.13
2023-03-20T01:07:26.818Z,100582.91
2023-03-20T01:09:54.228Z,100483.09
2023-03-20T01:12:21.512Z,100502.75
2023-03-20T01:14:58.120Z,100491.38
2023-03-20T01:17:27.475Z,100589.59
2023-03-20T01:19:55.147Z,100495.84
2023-03-20T01:22:22.907Z,100590.13
2023-03-20T01:24:50.357Z,100531.31
2023-03-20T01:27:20.552Z,100596.25
2023-03-20T01:29:48.239Z,100574.84
2023-03-20T01:32:19.984Z,100570.13
2023-03-20T01:34:53.363Z,100555.16
2023-03-20T01:37:28.489Z,100544.63
2023-03-20T01:40:01.034Z,100573.47
2023-03-20T01:42:31.150Z,100515.81
2023-03-20T01:44:58.771Z,100560.47
2023-03-20T01:47:27.965Z,100561.56
2023-03-20T01:50:18.235Z,100603.75
2023-03-20T01:52:50.079Z,100583.50
2023-03-20T01:55:18.170Z,100601.25
2023-03-20T01:57:53.698Z,100565.75
2023-03-20T02:00:21.855Z,100570.75
2023-03-20T02:02:49.200Z,100515.00
2023-03-20T02:05:38.282Z,100602.38
2023-03-20T02:08:32.851Z,100528.03
2023-03-20T02:11:05.410Z,100587.13
2023-03-20T02:13:33.546Z,100576.59
2023-03-20T02:16:10.553Z,100590.72
2023-03-20T02:18:58.253Z,100586.84
2023-03-20T02:21:28.724Z,100604.59
2023-03-20T02:24:09.051Z,100592.97
2023-03-20T02:27:06.639Z,100600.16
2023-03-20T02:29:43.316Z,100603.78
2023-03-20T02:32:52.348Z,100598.22
2023-03-20T02:35:40.977Z,100603.75
2023-03-20T02:38:35.910Z,100611.78
2023-03-20T02:41:23.419Z,100559.66
2023-03-20T02:43:56.510Z,100603.22
2023-03-20T02:46:42.858Z,100594.06
2023-03-20T02:49:28.890Z,100589.34
2023-03-20T02:52:03.645Z,100603.22
2023-03-20T02:54:52.870Z,100538.28
2023-03-20T02:57:29.822Z,100601.78
2023-03-20T03:00:19.021Z,100525.25
2023-03-20T03:03:02.780Z,100580.72
2023-03-20T03:05:41.857Z,100562.44
2023-03-20T03:08:14.592Z,100592.66
2023-03-20T03:10:51.111Z,100579.59
2023-03-20T03:13:24.290Z,100563.50
2023-03-20T03:15:55.755Z,100580.16
2023-03-20T03:18:26.954Z,100576.00
2023-03-20T03:20:59.932Z,100581.28
2023-03-20T03:23:37.688Z,100576.28
2023-03-20T03:26:08.105Z,100571.28
2023-03-20T03:28:45.148Z,100536.91
2023-03-20T03:31:16.112Z,100530.78
2023-03-20T03:33:50.980Z,100545.75
2023-03-20T03:36:39.611Z,100584.00
2023-03-20T03:39:45.294Z,100598.97
2023-03-20T03:42:18.210Z,100604.25
2023-03-20T03:45:14.919Z,100608.13
2023-03-20T03:47:51.295Z,100573.75
2023-03-20T03:50:48.865Z,100604.53
2023-03-20T03:53:35.136Z,100577.63
2023-03-20T03:56:07.193Z,100585.91
2023-03-20T03:58:43.264Z,100592.84
2023-03-20T04:01:14.124Z,100559.31
2023-03-20T04:03:50.057Z,100537.94
2023-03-20T04:06:18.498Z,100593.63
2023-03-20T04:08:46.611Z,100513.25
2023-03-20T04:11:19.516Z,100486.38
2023-03-20T04:13:50.836Z,100590.91
2023-03-20T04:16:20.324Z,100606.75
2023-03-20T04:18:47.783Z,100489.44
2023-03-20T04:21:17.062Z,100514.66
2023-03-20T04:23:45.609Z,100584.00
2023-03-20T04:26:13.558Z,100584.03
2023-03-20T04:28:40.862Z,100612.59
2023-03-20T04:31:36.031Z,100617.03
2023-03-20T04:34:12.320Z,100557.69
2023-03-20T04:37:05.730Z,100615.63
2023-03-20T04:39:44.320Z,100544.63
2023-03-20T04:42:11.940Z,100581.19
2023-03-20T04:44:39.310Z,100582.28
2023-03-20T04:47:06.889Z,100573.69
2023-03-20T04:49:41.645Z,100595.06
2023-03-20T04:52:09.239Z,100596.19
2023-03-20T04:54:41.215Z,100617.28
2023-03-20T04:57:08.707Z,100607.84
2023-03-20T04:59:37.392Z,100598.97
2023-03-20T05:02:04.902Z,100595.69
2023-03-20T05:04:32.768Z,100535.78
2023-03-20T05:06:59.920Z,100556.03
2023-03-20T05:09:35.635Z,100603.19
2023-03-20T05:12:05.534Z,100608.75
2023-03-20T05:14:51.020Z,100582.34
2023-03-20T05:17:37.120Z,100595.13
2023-03-20T05:20:16.731Z,100582.38
2023-03-20T05:23:06.287Z,100582.66
2023-03-20T05:26:00.617Z,100581.00
2023-03-20T05:28:52.228Z,100578.50
2023-03-20T05:31:43.290Z,100604.56
2023-03-20T05:34:18.732Z,100602.34
2023-03-20T05:37:03.663Z,100612.91
2023-03-20T05:39:57.211Z,100594.56
2023-03-20T05:42:42.300Z,100592.63
2023-03-20T05:45:43.798Z,100527.47
2023-03-20T05:48:29.784Z,100601.25
2023-03-20T05:51:16.336Z,100576.81
2023-03-20T05:54:07.129Z,100603.69
2023-03-20T05:56:53.029Z,100573.75
2023-03-20T05:59:44.301Z,100630.88
2023-03-20T06:02:38.682Z,100620.56
2023-03-20T06:05:26.326Z,100600.56
2023-03-20T06:07:53.811Z,100624.69
2023-03-20T06:10:21.192Z,100605.56
2023-03-20T06:12:50.630Z,100601.41
2023-03-20T06:15:20.347Z,100617.44
2023-03-20T06:17:56.112Z,100611.31
2023-03-20T06:20:24.306Z,100592.72
2023-03-20T06:22:51.978Z,100611.78
2023-03-20T06:25:20.962Z,100607.63
2023-03-20T06:27:49.127Z,100595.97
2023-03-20T06:30:17.468Z,100595.38
2023-03-20T06:32:46.842Z,100592.03
2023-03-20T06:35:14.991Z,100605.56
2023-03-20T06:37:46.067Z,100595.25
2023-03-20T06:40:20.142Z,100587.75
2023-03-20T06:42:47.852Z,100563.06
2023-03-20T06:45:16.826Z,100593.84
2023-03-20T06:47:57.033Z,100587.91
2023-03-20T06:50:24.514Z,100591.78
2023-03-20T06:52:52.526Z,100589.84
2023-03-20T06:55:40.329Z,100602.94
2023-03-20T06:58:07.441Z,100610.75
2023-03-20T07:00:36.104Z,100617.97
2023-03-20T07:03:05.589Z,100618.28
2023-03-20T07:05:32.914Z,100611.06
2023-03-20T07:08:02.278Z,100594.41
2023-03-20T07:10:29.647Z,100594.91
2023-03-20T07:12:56.955Z,100610.63
2023-03-20T07:15:25.286Z,100590.66
2023-03-20T07:17:52.911Z,100593.06
2023-03-20T07:20:21.007Z,100594.16
2023-03-20T07:22:48.376Z,100600.53
2023-03-20T07:25:35.687Z,100603.31
2023-03-20T07:28:09.151Z,100601.09
2023-03-20T07:30:39.365Z,100592.75
2023-03-20T07:33:07.272Z,100584.22
2023-03-20T07:35:36.219Z,100584.97
2023-03-20T07:38:04.527Z,100613.78
2023-03-20T07:40:32.900Z,100578.84
2023-03-20T07:43:04.838Z,100617.88
2023-03-20T07:46:10.405Z,100601.44
2023-03-20T07:48:38.981Z,100590.31
2023-03-20T07:51:07.176Z,100609.19
2023-03-20T07:53:34.407Z,100583.88
2023-03-20T07:56:01.672Z,100609.03
2023-03-20T07:58:31.573Z,100615.09
2023-03-20T08:01:01.692Z,100574.53
2023-03-20T08:03:30.865Z,100580.00
2023-03-20T08:05:58.547Z,100556.63
2023-03-20T08:08:26.021Z,100593.00
2023-03-20T08:10:53.209Z,100588.84
2023-03-20T08:13:20.363Z,100584.28
2023-03-20T08:15:47.756Z,100570.88
2023-03-20T08:18:15.296Z,100573.59
2023-03-20T08:20:42.924Z,100562.81
2023-03-20T08:23:10.045Z,100561.00
2023-03-20T08:25:38.076Z,100579.00
2023-03-20T08:28:05.509Z,100571.91
2023-03-20T08:30:32.769Z,100554.03
2023-03-20T08:33:00.173Z,100557.22
2023-03-20T08:35:33.241Z,100558.53
2023-03-20T08:38:01.718Z,100549.88
2023-03-20T08:40:29.087Z,100550.34
2023-03-20T08:42:56.621Z,100575.03
2023-03-20T08:45:26.620Z,100549.44
2023-03-20T08:47:55.047Z,100548.13
2023-03-20T08:50:22.499Z,100554.41
2023-03-20T08:52:49.787Z,100515.31
2023-03-20T08:55:17.344Z,100554.44
2023-03-20T08:57:44.441Z,100561.03
2023-03-20T09:00:14.525Z,100557.94
2023-03-20T09:02:43.125Z,100569.81
2023-03-20T09:05:11.353Z,100567.19
2023-03-20T09:07:38.933Z,100553.13
2023-03-20T09:10:06.708Z,100541.31
2023-03-20T09:12:34.143Z,100559.31
2023-03-20T09:15:01.600Z,100538.88
2023-03-20T09:17:31.690Z,100549.69
2023-03-20T09:19:59.290Z,100565.84
2023-03-20T09:22:26.502Z,100559.22
2023-03-20T09:24:53.697Z,100546.72
2023-03-20T09:27:21.598Z,100503.84
2023-03-20T09:29:49.070Z,100550.25
2023-03-20T09:32:16.532Z,100554.41
2023-03-20T09:34:43.674Z,100511.53
2023-03-20T09:37:11.160Z,100529.44
2023-03-20T09:39:38.417Z,100530.16
2023-03-20T09:42:13.637Z,100522.38
2023-03-20T09:45:01.565Z,100506.88
2023-03-20T09:47:30.571Z,100544.13
2023-03-20T09:50:24.731Z,100526.53
2023-03-20T09:52:58.798Z,100547.25
2023-03-20T09:55:33.867Z,100526.41
2023-03-20T09:58:18.564Z,100546.78
2023-03-20T10:00:47.011Z,100519.63
2023-03-20T10:03:39.737Z,100535.06
2023-03-20T10:06:13.885Z,100489.84
2023-03-20T10:08:43.188Z,100532.59
2023-03-20T10:11:19.184Z,100530.88
2023-03-20T10:14:08.372Z,100532.59
2023-03-20T10:17:05.238Z,100529.81
2023-03-20T10:20:24.740Z,100523.81
2023-03-20T10:22:58.075Z,100486.19
2023-03-20T10:25:41.689Z,100514.06
2023-03-20T10:28:14.455Z,100496.56
2023-03-20T10:30:57.647Z,100506.75
2023-03-20T10:34:02.667Z,100514.00
2023-03-20T10:36:48.317Z,100519.31
2023-03-20T10:39:39.959Z,100514.97
2023-03-20T10:42:18.359Z,100499.16
2023-03-20T10:44:54.063Z,100498.72
2023-03-20T10:47:27.061Z,100504.84
2023-03-20T10:50:00.744Z,100504.59
2023-03-20T10:52:38.248Z,100466.63
2023-03-20T10:55:14.923Z,100474.91
2023-03-20T10:57:47.605Z,100444.19
2023-03-20T11:00:21.833Z,100474.91
2023-03-20T11:02:49.225Z,100462.06
2023-03-20T11:05:29.643Z,100464.56
2023-03-20T11:08:13.222Z,100481.59
2023-03-20T11:10:42.803Z,100440.13
2023-03-20T11:13:33.558Z,100476.00
2023-03-20T11:16:22.225Z,100481.75
2023-03-20T11:18:52.435Z,100481.41
2023-03-20T11:21:28.824Z,100460.59
2023-03-20T11:23:56.470Z,100452.81
2023-03-20T11:26:36.174Z,100468.47
2023-03-20T11:29:08.253Z,100451.13
2023-03-20T11:31:38.631Z,100438.22
2023-03-20T11:34:24.725Z,100469.41
2023-03-20T11:37:09.583Z,100461.78
2023-03-20T11:39:40.197Z,100425.81
2023-03-20T11:42:25.076Z,100467.03
2023-03-20T11:45:01.786Z,100461.91
2023-03-20T11:47:35.924Z,100433.78
2023-03-20T11:50:07.362Z,100464.09
2023-03-20T11:52:39.271Z,100448.28
2023-03-20T11:55:23.990Z,100419.69
2023-03-20T11:57:51.319Z,100434.56
2023-03-20T12:00:24.533Z,100461.09
2023-03-20T12:02:51.888Z,100427.38
2023-03-20T12:05:37.412Z,100442.41
2023-03-20T12:08:11.438Z,100452.00
2023-03-20T12:10:44.662Z,100419.41
2023-03-20T12:13:25.205Z,100452.72
2023-03-20T12:16:04.782Z,100431.53
2023-03-20T12:18:49.236Z,100422.94
2023-03-20T12:22:02.086Z,100446.22
2023-03-20T12:25:11.937Z,100434.00
2023-03-20T12:27:53.391Z,100409.19
2023-03-20T12:30:46.074Z,100386.50
2023-03-20T12:33:54.979Z,100437.72
2023-03-20T12:36:37.367Z,100432.66
2023-03-20T12:39:11.579Z,100430.47
2023-03-20T12:41:49.292Z,100414.25
2023-03-20T12:44:26.504Z,100420.91
2023-03-20T12:47:15.873Z,100426.34
2023-03-20T12:50:04.893Z,100424.34
2023-03-20T12:52:50.982Z,100390.09
2023-03-20T12:55:26.313Z,100401.59
2023-03-20T12:58:14.710Z,100432.22
2023-03-20T13:00:50.838Z,100414.72
2023-03-20T13:03:33.630Z,100425.91
2023-03-20T13:06:16.128Z,100421.22
2023-03-20T13:09:14.251Z,100414.19
2023-03-20T13:11:56.031Z,100423.19
2023-03-20T13:14:29.298Z,100419.28
2023-03-20T13:17:19.349Z,100418.94
2023-03-20T13:20:24.340Z,100415.78
2023-03-20T13:23:12.867Z,100421.53
2023-03-20T13:26:18.488Z,100391.16
2023-03-20T13:29:07.102Z,100423.75
2023-03-20T13:31:43.479Z,100419.06
2023-03-20T13:34:32.200Z,100397.06
2023-03-20T13:37:23.508Z,100407.56
2023-03-20T13:40:19.228Z,100409.84
2023-03-20T13:43:08.792Z,100408.19
2023-03-20T13:45:40.315Z,100402.53
2023-03-20T13:48:37.588Z,100400.19
2023-03-20T13:51:23.818Z,100403.94
2023-03-20T13:54:09.164Z,100408.41
2023-03-20T13:56:42.453Z,100399.94
2023-03-20T13:59:37.531Z,100410.53
2023-03-20T14:02:52.801Z,100411.50
2023-03-20T14:05:23.276Z,100408.88
2023-03-20T14:07:56.451Z,100413.00
2023-03-20T14:10:24.208Z,100409.22
2023-03-20T14:13:17.683Z,100406.28
2023-03-20T14:15:58.651Z,100379.25
2023-03-20T14:18:26.722Z,100403.03
2023-03-20T14:21:02.737Z,100398.78
2023-03-20T14:23:49.419Z,100415.94
2023-03-20T14:26:26.279Z,100400.19
2023-03-20T14:29:13.673Z,100354.03
2023-03-20T14:31:45.427Z,100415.34
2023-03-20T14:34:12.874Z,100406.53
2023-03-20T14:37:06.158Z,100398.91
2023-03-20T14:39:42.695Z,100410.75
2023-03-20T14:42:42.525Z,100418.03
2023-03-20T14:45:40.470Z,100413.22
2023-03-20T14:48:34.785Z,100415.22
2023-03-20T14:51:02.438Z,100426.03
2023-03-20T14:53:32.968Z,100392.81
2023-03-20T14:56:13.603Z,100413.91
2023-03-20T14:58:46.939Z,100418.72
2023-03-20T15:01:20.664Z,100426.72
2023-03-20T15:03:54.261Z,100418.34
2023-03-20T15:06:25.501Z,100404.78
2023-03-20T15:09:05.502Z,100413.25
2023-03-20T15:11:35.063Z,100391.22
2023-03-20T15:14:06.279Z,100405.69
2023-03-20T15:16:36.461Z,100398.66
2023-03-20T15:19:17.155Z,100423.56
2023-03-20T15:21:46.574Z,100365.75
2023-03-20T15:24:21.236Z,100411.63
2023-03-20T15:26:51.216Z,100436.97
2023-03-20T15:29:21.605Z,100416.28
2023-03-20T15:32:12.382Z,100411.34
2023-03-20T15:34:42.746Z,100414.53
2023-03-20T15:37:16.452Z,100441.53
2023-03-20T15:39:48.882Z,100429.56
2023-03-20T15:42:21.729Z,100449.34
2023-03-20T15:44:52.304Z,100420.56
2023-03-20T15:47:23.008Z,100463.03
2023-03-20T15:50:00.375Z,100459.63
2023-03-20T15:52:41.607Z,100447.25
2023-03-20T15:55:20.484Z,100441.00
2023-03-20T15:57:50.505Z,100440.22
2023-03-20T16:00:26.496Z,100471.81
2023-03-20T16:02:54.121Z,100467.19
2023-03-20T16:05:26.384Z,100445.91
2023-03-20T16:07:54.020Z,100442.94
2023-03-20T16:10:38.137Z,100458.50
2023-03-20T16:13:07.867Z,100443.47
2023-03-20T16:15:35.158Z,100411.00
2023-03-20T16:18:04.643Z,100416.13
2023-03-20T16:20:40.352Z,100438.44
2023-03-20T16:23:09.358Z,100467.00
2023-03-20T16:25:37.692Z,100444.22
2023-03-20T16:28:09.060Z,100466.03
2023-03-20T16:30:36.990Z,100477.94
2023-03-20T16:33:16.185Z,100470.50
2023-03-20T16:35:48.773Z,100481.25
2023-03-20T16:38:24.914Z,100478.09
2023-03-20T16:40:58.505Z,100424.56
2023-03-20T16:43:32.355Z,100478.59
2023-03-20T16:46:05.427Z,100484.38
2023-03-20T16:48:33.620Z,100472.31
2023-03-20T16:51:16.634Z,100479.22
2023-03-20T16:53:50.475Z,100471.28
2023-03-20T16:56:29.800Z,100458.72
2023-03-20T16:58:57.303Z,100438.53
2023-03-20T17:01:29.015Z,100456.84
2023-03-20T17:03:59.307Z,100495.81
2023-03-20T17:06:38.578Z,100480.16
2023-03-20T17:09:17.841Z,100473.34
2023-03-20T17:11:49.418Z,100489.28
2023-03-20T17:14:17.504Z,100466.81
2023-03-20T17:16:44.651Z,100488.97
2023-03-20T17:19:16.502Z,100504.31
2023-03-20T17:21:45.311Z,100468.63
2023-03-20T17:24:14.484Z,100480.34
2023-03-20T17:26:44.356Z,100440.25
2023-03-20T17:29:12.694Z,100480.72
2023-03-20T17:31:40.125Z,100477.56
2023-03-20T17:34:07.460Z,100484.16
2023-03-20T17:36:36.688Z,100500.53
2023-03-20T17:39:04.219Z,100491.75
2023-03-20T17:41:31.456Z,100471.59
2023-03-20T17:43:58.616Z,100467.25
2023-03-20T17:46:28.977Z,100483.44
2023-03-20T17:49:03.450Z,100465.72
2023-03-20T17:51:32.669Z,100454.81
2023-03-20T17:54:01.471Z,100464.41
2023-03-20T17:56:33.140Z,100487.38
2023-03-20T17:59:03.327Z,100451.91
2023-03-20T18:01:32.736Z,100461.03
2023-03-20T18:04:00.221Z,100482.88
2023-03-20T18:06:30.719Z,100491.63
2023-03-20T18:08:59.345Z,100483.00
2023-03-20T18:11:27.327Z,100484.47
2023-03-20T18:13:54.636Z,100465.06
2023-03-20T18:16:24.767Z,100474.84
2023-03-20T18:18:52.959Z,100450.38
2023-03-20T18:21:20.862Z,100468.31
2023-03-20T18:23:48.747Z,100469.06
2023-03-20T18:26:25.311Z,100486.91
2023-03-20T18:28:54.139Z,100474.84
2023-03-20T18:31:22.488Z,100477.97
2023-03-20T18:33:51.728Z,100475.06
2023-03-20T18:36:24.514Z,100504.09
2023-03-20T18:38:52.575Z,100506.38
2023-03-20T18:41:23.193Z,100436.25
2023-03-20T18:43:57.508Z,100488.66
2023-03-20T18:46:26.150Z,100503.69
2023-03-20T18:48:54.631Z,100510.44
2023-03-20T18:51:21.968Z,100498.59
2023-03-20T18:53:49.385Z,100486.69
2023-03-20T18:56:23.310Z,100478.06
2023-03-20T18:58:52.849Z,100478.25
2023-03-20T19:01:20.737Z,100480.75
2023-03-20T19:03:48.341Z,100488.03
2023-03-20T19:06:18.353Z,100497.03
2023-03-20T19:08:47.112Z,100470.47
2023-03-20T19:11:15.672Z,100472.53
2023-03-20T19:13:49.042Z,100485.22
2023-03-20T19:16:24.596Z,100510.94
2023-03-20T19:18:53.526Z,100481.03
2023-03-20T19:21:26.413Z,100468.81
2023-03-20T19:23:54.950Z,100489.31
2023-03-20T19:26:24.755Z,100475.03
2023-03-20T19:28:52.949Z,100476.19
2023-03-20T19:31:21.856Z,100470.91
2023-03-20T19:33:49.810Z,100487.28
2023-03-20T19:36:37.697Z,100484.03
2023-03-20T19:39:07.986Z,100483.53
2023-03-20T19:41:35.410Z,100477.84
2023-03-20T19:44:03.647Z,100483.31
2023-03-20T19:46:46.041Z,100463.13
2023-03-20T19:49:30.090Z,100476.50
2023-03-20T19:51:58.183Z,100471.16
2023-03-20T19:54:25.467Z,100469.50
2023-03-20T19:56:52.600Z,100447.78
2023-03-20T19:59:21.132Z,100483.50
2023-03-20T20:01:48.719Z,100457.19
2023-03-20T20:04:16.378Z,100449.75
2023-03-20T20:06:47.106Z,100433.50
2023-03-20T20:09:15.204Z,100459.00
2023-03-20T20:11:42.538Z,100459.47
2023-03-20T20:14:11.890Z,100432.56
2023-03-20T20:16:42.749Z,100452.03
2023-03-20T20:19:10.831Z,100449.56
2023-03-20T20:24:25.586Z,100452.72
2023-03-20T20:27:03.525Z,100458.31
2023-03-20T20:29:42.161Z,100472.72
2023-03-20T20:32:09.302Z,100440.13
2023-03-20T20:35:34.219Z,100440.75
2023-03-20T20:40:17.154Z,100453.69
2023-03-20T20:42:47.483Z,100449.03
2023-03-20T20:45:15.520Z,100455.66
2023-03-20T20:47:47.555Z,100436.91
2023-03-20T20:50:18.219Z,100456.59
2023-03-20T20:52:45.645Z,100462.00
2023-03-20T20:55:23.098Z,100461.47
2023-03-20T20:57:53.326Z,100434.22
2023-03-20T21:00:34.036Z,100450.28
2023-03-20T21:03:04.764Z,100424.94
2023-03-20T21:05:35.414Z,100445.91
2023-03-20T21:08:03.411Z,100409.31
2023-03-20T21:10:31.410Z,100446.22
2023-03-20T21:12:59.988Z,100418.19
2023-03-20T21:15:28.181Z,100427.03
2023-03-20T21:18:01.438Z,100419.38
2023-03-20T21:20:33.163Z,100439.56
2023-03-20T21:23:00.725Z,100430.53
2023-03-20T21:25:39.648Z,100409.13
2023-03-20T21:28:09.613Z,100434.47
2023-03-20T21:30:43.222Z,100423.91
2023-03-20T21:33:13.999Z,100411.22
2023-03-20T21:35:46.288Z,100443.19
2023-03-20T21:38:55.344Z,100429.94
2023-03-20T21:41:08.132Z,100445.03
2023-03-20T21:43:35.527Z,100362.75
2023-03-20T21:49:41.243Z,100416.28
2023-03-20T21:55:08.418Z,100434.47
2023-03-20T22:02:49.685Z,100394.72
2023-03-20T22:06:14.085Z,100430.13
2023-03-20T22:17:40.906Z,100431.59
2023-03-20T22:23:03.479Z,100442.66
2023-03-20T22:28:21.795Z,100418.75
2023-03-20T22:39:28.195Z,100389.13
2023-03-20T22:47:15.005Z,100395.13
2023-03-20T22:49:44.976Z,100413.25
2023-03-20T22:52:26.518Z,100416.38
2023-03-20T22:55:01.264Z,100405.38
2023-03-20T22:57:41.157Z,100396.28
2023-03-20T23:00:12.225Z,100394.81
2023-03-20T23:02:39.396Z,100391.34
2023-03-20T23:05:06.844Z,100392.84
2023-03-20T23:07:34.058Z,100386.56
2023-03-20T23:10:01.334Z,100413.06
2023-03-20T23:12:29.978Z,100406.22
2023-03-20T23:14:57.315Z,100409.53
2023-03-20T23:17:24.715Z,100413.78
2023-03-20T23:19:59.027Z,100418.00
2023-03-20T23:22:32.562Z,100406.25
2023-03-20T23:25:09.737Z,100393.28
2023-03-20T23:27:40.558Z,100400.66
2023-03-20T23:30:08.688Z,100387.19
2023-03-20T23:32:40.761Z,100366.91
2023-03-20T23:35:08.816Z,100400.25
2023-03-20T23:37:36.848Z,100401.59
2023-03-20T23:40:06.176Z,100409.16
2023-03-20T23:42:33.504Z,100393.41
2023-03-20T23:45:17.325Z,100376.94
2023-03-20T23:47:48.354Z,100389.69
2023-03-20T23:50:30.146Z,100399.59
2023-03-20T23:53:13.190Z,100374.56
2023-03-20T23:55:47.702Z,100376.53
2023-03-20T23:58:16.191Z,100375.47
